createdAt,value
2018-05-02T00:01:06.293Z,7.33
2018-05-02T00:03:35.688Z,6.33
2018-05-02T00:06:05.542Z,5.30
2018-05-02T00:08:34.919Z,6.67
2018-05-02T00:11:04.566Z,5.47
2018-05-02T00:13:33.700Z,6.43
2018-05-02T00:16:03.256Z,7.73
2018-05-02T00:18:33.072Z,8.10
2018-05-02T00:21:02.284Z,10.17
2018-05-02T00:23:39.148Z,6.07
2018-05-02T00:26:08.441Z,7.90
2018-05-02T00:28:37.447Z,5.90
2018-05-02T00:31:07.249Z,6.00
2018-05-02T00:33:36.529Z,5.23
2018-05-02T00:36:06.333Z,6.40
2018-05-02T00:38:35.769Z,7.70
2018-05-02T00:41:05.112Z,6.27
2018-05-02T00:43:34.589Z,6.37
2018-05-02T00:46:04.172Z,7.63
2018-05-02T00:48:34.956Z,6.63
2018-05-02T00:51:04.776Z,6.50
2018-05-02T00:53:34.595Z,7.97
2018-05-02T00:56:04.079Z,6.53
2018-05-02T00:58:33.948Z,5.20
2018-05-02T01:01:03.311Z,6.90
2018-05-02T01:03:32.914Z,5.53
2018-05-02T01:06:01.853Z,6.37
2018-05-02T01:08:30.800Z,7.47
2018-05-02T01:11:00.073Z,4.70
2018-05-02T01:13:29.413Z,4.20
2018-05-02T01:15:59.620Z,5.63
2018-05-02T01:18:28.867Z,6.57
2018-05-02T01:20:58.335Z,6.57
2018-05-02T01:23:27.699Z,6.73
2018-05-02T01:25:58.736Z,5.70
2018-05-02T01:28:28.539Z,6.80
2018-05-02T01:30:57.643Z,5.20
2018-05-02T01:33:27.737Z,5.63
2018-05-02T01:35:57.139Z,7.83
2018-05-02T01:38:26.688Z,7.20
2018-05-02T01:40:55.494Z,8.83
2018-05-02T01:43:24.921Z,9.93
2018-05-02T01:45:54.264Z,6.77
2018-05-02T01:48:23.592Z,9.30
2018-05-02T01:50:52.944Z,8.13
2018-05-02T01:53:22.220Z,6.33
2018-05-02T01:55:51.915Z,6.20
2018-05-02T01:58:20.699Z,6.13
2018-05-02T02:00:50.051Z,9.20
2018-05-02T02:03:20.207Z,6.23
2018-05-02T02:05:49.848Z,7.13
2018-05-02T02:08:20.020Z,9.93
2018-05-02T02:10:49.197Z,10.17
2018-05-02T02:13:18.514Z,5.63
2018-05-02T02:15:47.811Z,7.10
2018-05-02T02:18:17.712Z,6.30
2018-05-02T02:20:46.408Z,5.97
2018-05-02T02:23:16.322Z,6.37
2018-05-02T02:25:46.649Z,8.73
2018-05-02T02:28:16.757Z,6.23
2018-05-02T02:30:45.651Z,6.40
2018-05-02T02:33:15.572Z,7.50
2018-05-02T02:35:45.147Z,5.63
2018-05-02T02:38:14.813Z,7.53
2018-05-02T02:40:44.806Z,6.10
2018-05-02T02:43:14.060Z,5.77
2018-05-02T02:45:43.488Z,5.40
2018-05-02T02:48:12.755Z,9.43
2018-05-02T02:50:41.929Z,5.50
2018-05-02T02:53:11.134Z,5.43
2018-05-02T02:55:40.967Z,6.87
2018-05-02T02:58:09.848Z,6.50
2018-05-02T03:00:39.142Z,7.27
2018-05-02T03:03:08.673Z,8.17
2018-05-02T03:05:37.892Z,5.53
2018-05-02T03:08:07.344Z,7.63
2018-05-02T03:10:36.969Z,5.70
2018-05-02T03:14:09.700Z,7.10
2018-05-02T03:16:38.818Z,6.67
2018-05-02T03:19:08.799Z,7.77
2018-05-02T03:21:37.987Z,6.63
2018-05-02T03:24:06.791Z,6.37
2018-05-02T03:26:36.454Z,7.37
2018-05-02T03:29:06.045Z,5.53
2018-05-02T03:31:35.506Z,8.60
2018-05-02T03:34:06.036Z,5.47
2018-05-02T03:36:35.749Z,9.23
2018-05-02T03:39:05.348Z,7.67
2018-05-02T03:41:34.432Z,7.53
2018-05-02T03:44:03.832Z,7.30
2018-05-02T03:46:33.335Z,8.23
2018-05-02T03:49:03.093Z,5.20
2018-05-02T03:51:32.466Z,5.37
2018-05-02T03:54:02.094Z,6.23
2018-05-02T03:56:31.460Z,5.67
2018-05-02T03:59:00.907Z,9.60
2018-05-02T04:03:41.439Z,7.43
2018-05-02T04:06:19.116Z,8.97
2018-05-02T04:08:48.348Z,7.27
2018-05-02T04:11:17.555Z,9.43
2018-05-02T04:13:47.219Z,10.53
2018-05-02T04:16:16.771Z,8.63
2018-05-02T04:18:46.369Z,21.70
2018-05-02T04:21:16.216Z,30.33
2018-05-02T04:23:46.289Z,17.33
2018-05-02T04:26:15.764Z,11.83
2018-05-02T04:28:47.509Z,12.07
2018-05-02T04:31:17.537Z,10.37
2018-05-02T04:33:46.806Z,7.43
2018-05-02T04:36:16.116Z,14.73
2018-05-02T04:38:45.314Z,11.37
2018-05-02T04:41:14.989Z,15.73
2018-05-02T04:43:44.180Z,23.37
2018-05-02T04:46:13.132Z,22.73
2018-05-02T04:48:42.464Z,10.30
2018-05-02T04:51:11.970Z,14.30
2018-05-02T04:53:41.491Z,11.93
2018-05-02T04:56:11.151Z,15.47
2018-05-02T04:58:41.629Z,12.53
2018-05-02T05:01:10.912Z,7.73
2018-05-02T05:03:40.348Z,11.33
2018-05-02T05:06:10.361Z,9.43
2018-05-02T05:08:40.244Z,9.80
2018-05-02T05:11:09.861Z,7.37
2018-05-02T05:13:39.118Z,14.00
2018-05-02T05:16:07.955Z,10.00
2018-05-02T05:18:37.660Z,10.53
2018-05-02T05:21:06.996Z,9.40
2018-05-02T05:23:36.673Z,5.77
2018-05-02T05:26:05.784Z,6.63
2018-05-02T05:28:35.437Z,10.97
2018-05-02T05:31:04.983Z,7.77
2018-05-02T05:33:35.485Z,7.20
2018-05-02T05:36:04.777Z,9.73
2018-05-02T05:38:33.974Z,7.33
2018-05-02T05:41:03.855Z,32.67
2018-05-02T05:43:33.516Z,13.60
2018-05-02T05:46:02.796Z,22.27
2018-05-02T05:48:32.045Z,32.80
2018-05-02T05:51:01.365Z,25.77
2018-05-02T05:53:30.630Z,13.20
2018-05-02T05:56:00.029Z,9.90
2018-05-02T05:58:29.279Z,19.13
2018-05-02T06:00:58.307Z,17.27
2018-05-02T06:03:27.197Z,11.67
2018-05-02T06:05:57.277Z,8.80
2018-05-02T06:08:26.530Z,5.87
2018-05-02T06:10:55.382Z,11.37
2018-05-02T06:13:24.209Z,8.30
2018-05-02T06:15:53.723Z,7.10
2018-05-02T06:18:22.541Z,13.23
2018-05-02T06:20:52.074Z,7.73
2018-05-02T06:23:21.333Z,6.47
2018-05-02T06:25:51.125Z,7.53
2018-05-02T06:28:20.715Z,13.53
2018-05-02T06:30:50.297Z,11.13
2018-05-02T06:33:20.438Z,10.33
2018-05-02T06:35:51.624Z,11.50
2018-05-02T06:38:20.819Z,8.13
2018-05-02T06:40:49.615Z,10.70
2018-05-02T06:43:18.712Z,7.27
2018-05-02T06:45:47.596Z,6.67
2018-05-02T06:48:17.568Z,11.50
2018-05-02T06:50:47.231Z,8.40
2018-05-02T06:53:16.445Z,8.83
2018-05-02T06:55:47.707Z,9.07
2018-05-02T06:58:17.477Z,8.17
2018-05-02T07:00:46.787Z,13.43
2018-05-02T07:03:16.131Z,10.13
2018-05-02T07:05:45.381Z,7.67
2018-05-02T07:08:14.632Z,11.17
2018-05-02T07:10:43.517Z,9.07
2018-05-02T07:13:12.792Z,7.87
2018-05-02T07:15:43.186Z,9.93
2018-05-02T07:18:12.486Z,8.13
2018-05-02T07:20:41.463Z,8.97
2018-05-02T07:23:11.129Z,7.20
2018-05-02T07:25:40.575Z,8.17
2018-05-02T07:28:10.157Z,7.57
2018-05-02T07:30:39.183Z,8.17
2018-05-02T07:33:08.809Z,7.97
2018-05-02T07:35:37.761Z,10.40
2018-05-02T07:38:07.773Z,8.80
2018-05-02T07:40:37.178Z,9.50
2018-05-02T07:43:06.535Z,7.77
2018-05-02T07:45:35.492Z,7.47
2018-05-02T07:48:04.669Z,6.03
2018-05-02T07:50:34.208Z,5.67
2018-05-02T07:53:03.832Z,7.80
2018-05-02T07:55:32.755Z,5.97
2018-05-02T07:58:01.673Z,7.60
2018-05-02T08:00:31.359Z,7.77
2018-05-02T08:03:00.607Z,8.53
2018-05-02T08:05:29.376Z,9.47
2018-05-02T08:07:58.438Z,8.23
2018-05-02T08:10:27.687Z,7.67
2018-05-02T08:12:57.032Z,9.07
2018-05-02T08:15:26.323Z,7.80
2018-05-02T08:17:55.814Z,7.30
2018-05-02T08:20:25.141Z,6.67
2018-05-02T08:22:54.637Z,7.10
2018-05-02T08:25:24.632Z,5.33
2018-05-02T08:27:54.035Z,6.23
2018-05-02T08:30:23.686Z,6.67
2018-05-02T08:32:53.469Z,7.80
2018-05-02T08:35:22.373Z,9.90
2018-05-02T08:37:51.791Z,6.53
2018-05-02T08:40:21.417Z,9.37
2018-05-02T08:42:52.196Z,4.87
2018-05-02T08:45:21.711Z,5.43
2018-05-02T08:47:51.605Z,5.20
2018-05-02T08:50:21.116Z,6.27
2018-05-02T08:52:50.590Z,7.07
2018-05-02T08:55:19.921Z,5.17
2018-05-02T08:57:49.374Z,5.37
2018-05-02T09:00:18.783Z,5.93
2018-05-02T09:02:48.595Z,5.73
2018-05-02T09:05:17.496Z,7.67
2018-05-02T09:07:47.135Z,5.43
2018-05-02T09:10:16.611Z,4.97
2018-05-02T09:12:45.804Z,4.10
2018-05-02T09:15:15.455Z,7.47
2018-05-02T09:17:45.148Z,5.20
2018-05-02T09:20:14.015Z,4.43
2018-05-02T09:22:43.256Z,4.20
2018-05-02T09:25:12.639Z,6.33
2018-05-02T09:27:41.471Z,3.80
2018-05-02T09:30:10.768Z,5.47
2018-05-02T09:32:39.996Z,6.83
2018-05-02T09:35:08.860Z,4.07
2018-05-02T09:37:38.961Z,5.13
2018-05-02T09:40:07.986Z,3.63
2018-05-02T09:42:38.660Z,4.27
2018-05-02T09:45:08.379Z,5.17
2018-05-02T09:47:37.462Z,4.30
2018-05-02T09:50:06.636Z,3.93
2018-05-02T09:52:35.998Z,4.07
2018-05-02T09:55:07.225Z,3.90
2018-05-02T09:57:36.413Z,6.50
2018-05-02T10:00:05.441Z,4.50
2018-05-02T10:02:34.494Z,5.33
2018-05-02T10:05:03.452Z,5.10
2018-05-02T10:07:32.540Z,4.00
2018-05-02T10:10:01.331Z,3.93
2018-05-02T10:12:30.500Z,4.50
2018-05-02T10:14:59.612Z,3.03
2018-05-02T10:17:28.828Z,3.27
2018-05-02T10:19:58.121Z,3.20
2018-05-02T10:22:27.075Z,4.00
2018-05-02T10:24:56.128Z,4.83
2018-05-02T10:27:25.074Z,4.03
2018-05-02T10:29:54.217Z,4.63
2018-05-02T10:32:23.473Z,5.40
2018-05-02T10:34:52.197Z,6.80
2018-05-02T10:37:21.147Z,3.00
2018-05-02T10:39:50.671Z,3.73
2018-05-02T10:42:19.813Z,3.37
2018-05-02T10:44:48.714Z,2.30
2018-05-02T10:47:18.260Z,2.67
2018-05-02T10:49:47.573Z,3.13
2018-05-02T10:52:17.004Z,2.60
2018-05-02T10:54:46.878Z,3.37
2018-05-02T10:57:16.223Z,4.23
2018-05-02T10:59:45.034Z,3.63
2018-05-02T11:02:14.475Z,5.60
2018-05-02T11:04:43.793Z,5.10
2018-05-02T11:07:12.557Z,3.13
2018-05-02T11:09:41.982Z,4.67
2018-05-02T11:12:11.373Z,2.60
2018-05-02T11:14:40.139Z,4.63
2018-05-02T11:17:09.114Z,3.80
2018-05-02T11:19:38.222Z,3.53
2018-05-02T11:22:07.281Z,3.23
2018-05-02T11:24:36.991Z,3.33
2018-05-02T11:27:06.184Z,4.40
2018-05-02T11:29:35.542Z,4.90
2018-05-02T11:32:05.667Z,4.77
2018-05-02T11:34:34.662Z,4.30
2018-05-02T11:37:04.398Z,6.33
2018-05-02T11:39:33.500Z,7.07
2018-05-02T11:42:02.629Z,4.67
2018-05-02T11:44:32.751Z,8.60
2018-05-02T11:47:05.351Z,7.43
2018-05-02T11:49:34.583Z,6.13
2018-05-02T11:52:04.093Z,4.93
2018-05-02T11:54:33.487Z,5.67
2018-05-02T11:57:02.908Z,5.10
2018-05-02T11:59:32.203Z,6.30
2018-05-02T12:02:01.408Z,5.67
2018-05-02T12:04:30.884Z,4.03
2018-05-02T12:07:00.259Z,5.87
2018-05-02T12:09:30.363Z,6.47
2018-05-02T12:11:59.658Z,4.63
2018-05-02T12:14:28.671Z,4.97
2018-05-02T12:16:58.105Z,3.53
2018-05-02T12:19:27.208Z,3.67
2018-05-02T12:21:56.752Z,3.47
2018-05-02T12:24:26.559Z,3.33
2018-05-02T12:26:56.859Z,3.07
2018-05-02T12:29:25.865Z,4.10
2018-05-02T12:31:55.106Z,5.27
2018-05-02T12:34:25.595Z,6.80
2018-05-02T12:36:54.859Z,4.33
2018-05-02T12:39:23.718Z,4.93
2018-05-02T12:41:53.085Z,4.00
2018-05-02T12:44:22.468Z,5.30
2018-05-02T12:46:52.385Z,4.73
2018-05-02T12:49:22.508Z,4.43
2018-05-02T12:51:51.674Z,4.13
2018-05-02T12:54:20.868Z,5.20
2018-05-02T12:56:50.164Z,2.83
2018-05-02T12:59:20.620Z,4.53
2018-05-02T13:01:51.061Z,3.63
2018-05-02T13:04:20.871Z,3.50
2018-05-02T13:06:51.801Z,7.77
2018-05-02T13:09:21.402Z,3.93
2018-05-02T13:11:51.122Z,5.47
2018-05-02T13:14:20.515Z,4.70
2018-05-02T13:16:50.510Z,6.57
2018-05-02T13:19:19.803Z,4.83
2018-05-02T13:21:49.317Z,2.77
2018-05-02T13:24:18.905Z,5.07
2018-05-02T13:26:47.979Z,6.10
2018-05-02T13:29:17.035Z,5.23
2018-05-02T13:31:46.252Z,5.43
2018-05-02T13:34:15.348Z,5.60
2018-05-02T13:36:44.751Z,5.57
2018-05-02T13:39:14.305Z,3.67
2018-05-02T13:41:44.745Z,5.70
2018-05-02T13:44:13.930Z,6.67
2018-05-02T13:46:43.364Z,3.50
2018-05-02T13:49:12.574Z,5.40
2018-05-02T13:51:42.663Z,2.77
2018-05-02T13:54:12.272Z,8.40
2018-05-02T13:56:41.758Z,4.10
2018-05-02T13:59:11.588Z,6.07
2018-05-02T14:01:40.989Z,7.37
2018-05-02T14:04:10.197Z,4.83
2018-05-02T14:06:40.097Z,3.93
2018-05-02T14:09:09.520Z,7.40
2018-05-02T14:11:38.441Z,3.90
2018-05-02T14:14:07.809Z,2.60
2018-05-02T14:16:38.101Z,3.03
2018-05-02T14:19:08.055Z,7.63
2018-05-02T14:21:37.407Z,4.67
2018-05-02T14:24:06.729Z,7.10
2018-05-02T14:26:35.764Z,2.63
2018-05-02T14:29:04.773Z,3.23
2018-05-02T14:31:33.769Z,5.73
2018-05-02T14:34:03.002Z,5.10
2018-05-02T14:36:33.249Z,3.63
2018-05-02T14:39:02.581Z,6.13
2018-05-02T14:41:31.752Z,6.90
2018-05-02T14:44:01.535Z,7.27
2018-05-02T14:47:30.533Z,5.97
2018-05-02T14:50:13.299Z,4.50
2018-05-02T14:52:44.665Z,3.30
2018-05-02T14:55:18.500Z,3.77
2018-05-02T14:57:48.307Z,5.10
2018-05-02T15:00:18.375Z,3.07
2018-05-02T15:02:52.146Z,5.10
2018-05-02T15:05:26.986Z,3.10
2018-05-02T15:07:58.861Z,3.67
2018-05-02T15:10:35.870Z,4.40
2018-05-02T15:13:08.804Z,5.13
2018-05-02T15:15:37.173Z,5.00
2018-05-02T15:18:06.213Z,4.60
2018-05-02T15:20:35.612Z,3.73
2018-05-02T15:23:04.099Z,3.10
2018-05-02T15:25:33.225Z,6.97
2018-05-02T15:28:01.627Z,3.27
2018-05-02T15:30:30.286Z,4.17
2018-05-02T15:32:59.321Z,3.03
2018-05-02T15:35:28.234Z,6.77
2018-05-02T15:37:56.876Z,5.30
2018-05-02T15:40:25.709Z,3.83
2018-05-02T15:42:54.808Z,5.30
2018-05-02T15:45:24.186Z,3.93
2018-05-02T15:47:53.003Z,3.30
2018-05-02T15:50:21.325Z,3.87
2018-05-02T15:52:51.233Z,3.07
2018-05-02T15:55:19.424Z,3.90
2018-05-02T15:57:48.689Z,5.67
2018-05-02T16:00:16.920Z,5.23
2018-05-02T16:02:45.998Z,4.00
2018-05-02T16:05:14.831Z,4.90
2018-05-02T16:07:43.665Z,8.20
2018-05-02T16:10:12.025Z,4.03
2018-05-02T16:12:40.820Z,4.67
2018-05-02T16:15:10.593Z,5.07
2018-05-02T16:17:38.843Z,4.07
2018-05-02T16:20:07.178Z,7.27
2018-05-02T16:22:35.614Z,3.63
2018-05-02T16:25:04.205Z,3.10
2018-05-02T16:27:33.540Z,4.07
2018-05-02T16:30:02.749Z,7.10
2018-05-02T16:32:32.238Z,5.30
2018-05-02T16:35:00.563Z,8.53
2018-05-02T16:37:29.834Z,4.07
2018-05-02T16:39:58.228Z,5.07
2018-05-02T16:42:27.232Z,6.83
2018-05-02T16:44:55.486Z,4.70
2018-05-02T16:47:23.652Z,4.33
2018-05-02T16:49:51.938Z,6.10
2018-05-02T16:52:20.263Z,4.90
2018-05-02T16:54:48.484Z,3.33
2018-05-02T16:57:17.576Z,7.37
2018-05-02T16:59:46.207Z,5.57
2018-05-02T17:02:14.572Z,4.83
2018-05-02T17:04:43.039Z,3.83
2018-05-02T17:07:12.405Z,6.23
2018-05-02T17:09:40.882Z,4.13
2018-05-02T17:12:09.017Z,4.83
2018-05-02T17:14:37.329Z,4.87
2018-05-02T17:17:05.536Z,4.03
2018-05-02T17:19:33.926Z,5.00
2018-05-02T17:22:02.892Z,3.23
2018-05-02T17:24:31.072Z,6.70
2018-05-02T17:26:59.444Z,3.97
2018-05-02T17:29:27.695Z,7.97
2018-05-02T17:31:55.814Z,4.63
2018-05-02T17:34:24.769Z,5.23
2018-05-02T17:36:52.939Z,10.73
2018-05-02T17:39:21.598Z,5.67
2018-05-02T17:41:49.994Z,2.60
2018-05-02T17:44:18.261Z,5.50
2018-05-02T17:46:46.463Z,4.00
2018-05-02T17:49:15.046Z,5.40
2018-05-02T17:51:43.155Z,3.53
2018-05-02T17:54:11.645Z,3.00
2018-05-02T17:56:42.031Z,5.53
2018-05-02T17:59:10.884Z,4.90
2018-05-02T18:01:39.157Z,6.77
2018-05-02T18:04:07.115Z,4.53
2018-05-02T18:06:35.097Z,6.90
2018-05-02T18:09:04.571Z,7.10
2018-05-02T18:11:33.365Z,6.72
2018-05-02T18:14:02.390Z,4.63
2018-05-02T18:16:31.352Z,4.57
2018-05-02T18:18:59.420Z,4.40
2018-05-02T18:21:27.452Z,5.07
2018-05-02T18:23:55.916Z,5.13
2018-05-02T18:26:24.366Z,8.20
2018-05-02T18:28:52.569Z,4.33
2018-05-02T18:31:20.911Z,5.27
2018-05-02T18:33:49.969Z,5.67
2018-05-02T18:36:18.224Z,5.37
2018-05-02T18:38:46.310Z,7.17
2018-05-02T18:41:14.780Z,6.03
2018-05-02T18:43:43.088Z,4.57
2018-05-02T18:46:12.336Z,5.33
2018-05-02T18:48:41.356Z,5.07
2018-05-02T18:51:10.047Z,6.40
2018-05-02T18:53:38.906Z,9.77
2018-05-02T18:56:07.269Z,7.47
2018-05-02T18:58:35.563Z,3.70
2018-05-02T19:01:04.793Z,4.77
2018-05-02T19:03:33.969Z,7.83
2018-05-02T19:06:02.564Z,5.13
2018-05-02T19:08:30.865Z,7.53
2018-05-02T19:10:59.315Z,8.97
2018-05-02T19:13:28.876Z,10.07
2018-05-02T19:15:57.001Z,5.30
2018-05-02T19:18:29.628Z,6.47
2018-05-02T19:20:58.417Z,5.23
2018-05-02T19:23:26.391Z,4.90
2018-05-02T19:26:01.366Z,6.27
2018-05-02T19:28:29.584Z,6.33
2018-05-02T19:31:02.417Z,8.23
2018-05-02T19:34:02.301Z,4.90
2018-05-02T19:36:30.617Z,4.23
2018-05-02T19:39:00.691Z,5.37
2018-05-02T19:42:32.799Z,6.43
2018-05-02T19:45:02.378Z,7.10
2018-05-02T19:47:30.608Z,6.07
2018-05-02T19:49:58.966Z,9.57
2018-05-02T19:52:59.697Z,6.87
2018-05-02T19:55:28.057Z,5.90
2018-05-02T19:58:04.189Z,7.70
2018-05-02T20:00:36.980Z,5.80
2018-05-02T20:03:05.268Z,7.40
2018-05-02T20:05:33.417Z,7.33
2018-05-02T20:08:06.174Z,4.70
2018-05-02T20:10:40.161Z,5.93
2018-05-02T20:14:14.124Z,5.23
2018-05-02T20:16:43.919Z,7.37
2018-05-02T20:19:12.356Z,4.80
2018-05-02T20:21:40.925Z,5.90
2018-05-02T20:24:09.558Z,4.90
2018-05-02T20:26:38.125Z,4.90
2018-05-02T20:29:07.750Z,6.00
2018-05-02T20:31:36.251Z,4.43
2018-05-02T20:34:04.628Z,3.70
2018-05-02T20:36:33.893Z,4.87
2018-05-02T20:39:02.411Z,4.50
2018-05-02T20:41:31.132Z,6.83
2018-05-02T20:43:59.230Z,5.47
2018-05-02T20:46:28.296Z,5.67
2018-05-02T20:48:57.242Z,3.87
2018-05-02T20:51:25.705Z,7.53
2018-05-02T20:53:54.851Z,4.30
2018-05-02T20:56:23.004Z,5.67
2018-05-02T20:58:51.355Z,5.37
2018-05-02T21:01:21.672Z,7.07
2018-05-02T21:03:50.057Z,4.57
2018-05-02T21:06:19.160Z,4.37
2018-05-02T21:08:48.168Z,5.27
2018-05-02T21:11:16.348Z,3.63
2018-05-02T21:13:44.583Z,9.40
2018-05-02T21:16:13.443Z,6.50
2018-05-02T21:18:41.783Z,3.87
2018-05-02T21:21:11.138Z,4.30
2018-05-02T21:23:40.216Z,5.83
2018-05-02T21:26:09.155Z,5.30
2018-05-02T21:28:37.308Z,5.20
2018-05-02T21:31:06.379Z,6.17
2018-05-02T21:33:35.682Z,7.23
2018-05-02T21:36:03.984Z,7.07
2018-05-02T21:38:33.401Z,5.37
2018-05-02T21:41:01.555Z,8.80
2018-05-02T21:43:30.642Z,5.40
2018-05-02T21:45:59.507Z,8.20
2018-05-02T21:48:28.567Z,7.80
2018-05-02T21:50:56.857Z,4.23
2018-05-02T21:53:24.911Z,6.53
2018-05-02T21:55:53.030Z,7.20
2018-05-02T21:58:21.903Z,3.73
2018-05-02T22:00:50.101Z,7.23
2018-05-02T22:03:19.156Z,3.30
2018-05-02T22:05:48.037Z,4.17
2018-05-02T22:08:16.626Z,6.07
2018-05-02T22:10:44.692Z,4.53
2018-05-02T22:13:13.022Z,3.73
2018-05-02T22:15:42.832Z,3.97
2018-05-02T22:18:11.183Z,7.17
2018-05-02T22:20:39.524Z,5.13
2018-05-02T22:23:08.133Z,5.93
2018-05-02T22:25:37.028Z,5.83
2018-05-02T22:28:06.028Z,6.50
2018-05-02T22:30:34.447Z,6.23
2018-05-02T22:33:02.510Z,8.27
2018-05-02T22:35:30.782Z,3.60
2018-05-02T22:37:59.723Z,4.70
2018-05-02T22:40:28.050Z,5.80
2018-05-02T22:42:57.661Z,4.63
2018-05-02T22:45:26.729Z,6.53
2018-05-02T22:47:55.645Z,7.07
2018-05-02T22:50:24.589Z,4.57
2018-05-02T22:52:53.022Z,6.23
2018-05-02T22:55:21.429Z,4.87
2018-05-02T22:57:49.757Z,4.53
2018-05-02T23:00:18.704Z,6.40
2018-05-02T23:02:47.584Z,6.87
2018-05-02T23:05:15.802Z,4.20
2018-05-02T23:07:44.828Z,5.10
2018-05-02T23:10:12.941Z,5.67
2018-05-02T23:12:41.483Z,7.37
2018-05-02T23:15:09.762Z,4.20
2018-05-02T23:17:38.065Z,4.53
2018-05-02T23:20:06.299Z,6.40
2018-05-02T23:22:35.227Z,4.50
2018-05-02T23:25:03.256Z,4.93
2018-05-02T23:27:43.880Z,4.87
2018-05-02T23:30:11.980Z,5.10
2018-05-02T23:32:40.157Z,5.20
2018-05-02T23:38:29.780Z,7.33
2018-05-02T23:40:57.769Z,3.50
2018-05-02T23:44:07.084Z,5.47
2018-05-02T23:46:36.714Z,4.43
2018-05-02T23:49:04.918Z,6.00
2018-05-02T23:52:07.875Z,4.57
2018-05-02T23:54:36.469Z,8.27
2018-05-02T23:57:04.662Z,4.53
